Time;durP1;ratioP1;P1;durP2;ratioP2;P2;SDS_P1;SDS_P2;PMS_P1;PMS_P2;Temp;Humidity;BMP_temperature;BMP_pressure;BME280_temperature;BME280_humidity;BME280_pressure;Samples;Min_cycle;Max_cycle;Signal;HPM_P1;HPM_P2
2022/01/21 00:01:25;;;;;;;7.30;1.30;;;;;;;-1.28;65.67;98925.13;1782731;80;21553;-68
2022/01/21 00:03:53;;;;;;;4.05;1.05;;;;;;;-1.28;65.57;98925.13;1784490;80;20950;-68
2022/01/21 00:06:19;;;;;;;;;;;;;;;-1.28;65.72;98914.89;1783922;79;21077;-68
2022/01/21 00:08:51;;;;;;;2.00;0.57;;;;;;;-1.26;66.15;98936.22;1776928;80;20422;-68
2022/01/21 00:11:19;;;;;;;1.07;0.60;;;;;;;-1.25;66.02;98955.83;1782323;79;21082;-68
2022/01/21 00:13:46;;;;;;;8.83;0.93;;;;;;;-1.22;66.37;98921.20;1784755;80;20945;-68
2022/01/21 00:16:17;;;;;;;1.62;0.60;;;;;;;-1.24;66.45;98942.14;1779916;79;20946;-68
2022/01/21 00:18:56;;;;;;;1.30;0.70;;;;;;;-1.25;66.41;98935.34;1767686;79;21072;-68
2022/01/21 00:32:22;;;;;;;2.33;0.93;;;;;;;-1.13;67.01;98940.30;1766683;79;20965;-68
2022/01/21 00:34:50;;;;;;;4.08;0.80;;;;;;;-1.16;67.08;98937.78;1762707;79;21718;-69
2022/01/21 00:37:16;;;;;;;2.67;0.55;;;;;;;-1.19;67.05;98939.09;1768026;79;21213;-68
2022/01/21 00:39:52;;;;;;;6.10;0.70;;;;;;;-1.15;67.21;98957.42;1766691;79;20996;-68
2022/01/21 00:42:45;;;;;;;5.40;0.78;;;;;;;-1.14;67.31;98950.58;1780179;79;21008;-68
2022/01/21 00:44:43;;;;;;;3.10;0.98;;;;;;;-1.14;67.33;98959.11;1776152;80;21504;-68
2022/01/21 00:47:09;;;;;;;2.65;0.70;;;;;;;-1.13;67.30;98977.88;1783102;79;21025;-68
2022/01/21 00:49:36;;;;;;;2.67;1.07;;;;;;;-1.09;67.48;98963.31;1783514;80;21966;-68
2022/01/21 00:52:03;;;;;;;6.45;0.90;;;;;;;-1.07;67.46;98969.28;1779607;79;21504;-68
2022/01/21 00:54:30;;;;;;;1.70;0.40;;;;;;;-1.07;67.50;98976.96;1780428;79;21465;-68
2022/01/21 00:56:57;;;;;;;2.05;0.68;;;;;;;-1.09;67.47;98971.87;1783851;80;20925;-67
2022/01/21 00:59:24;;;;;;;2.83;0.60;;;;;;;-1.08;67.58;98982.97;1783195;80;21253;-68
2022/01/21 01:01:50;;;;;;;2.33;1.17;;;;;;;-1.08;67.56;98967.59;1783355;79;21560;-68
2022/01/21 01:04:17;;;;;;;3.55;0.78;;;;;;;-1.09;67.42;98987.66;1780699;80;21012;-68
2022/01/21 01:06:44;;;;;;;2.60;0.97;;;;;;;-1.06;67.54;98991.48;1783435;79;20973;-68
2022/01/21 01:09:10;;;;;;;2.87;0.82;;;;;;;-1.06;67.44;98991.48;1782519;79;22394;-68
2022/01/21 01:11:53;;;;;;;4.60;0.93;;;;;;;-1.07;67.26;99002.58;1780430;79;21579;-68
2022/01/21 01:20:02;;;;;;;1.77;0.70;;;;;;;-1.07;67.12;98989.33;1783616;80;21053;-68
2022/01/21 01:22:53;;;;;;;2.87;0.62;;;;;;;-1.07;67.31;98984.65;1779586;80;21005;-68
2022/01/21 01:28:00;;;;;;;3.52;0.85;;;;;;;-1.11;67.21;99004.78;1779432;79;21125;-68
2022/01/21 01:30:31;;;;;;;1.40;0.55;;;;;;;-1.12;67.42;99009.06;1781474;79;21470;-68
2022/01/21 01:33:00;;;;;;;2.02;0.70;;;;;;;-1.13;67.23;99009.47;1784059;79;20977;-68
2022/01/21 01:35:31;;;;;;;2.35;0.68;;;;;;;-1.11;67.18;99018.87;1779799;80;21520;-68
2022/01/21 01:49:25;;;;;;;3.02;0.70;;;;;;;-1.09;66.92;99023.52;1780009;79;20997;-68
2022/01/21 01:50:57;;;;;;;2.72;0.68;;;;;;;-1.10;66.57;99017.99;1778510;80;21009;-68
2022/01/21 01:53:32;;;;;;;2.00;0.62;;;;;;;-1.06;67.06;99039.73;1780978;80;21142;-68
2022/01/21 01:56:01;;;;;;;3.02;0.40;;;;;;;-1.06;67.06;99017.11;1781774;80;20972;-69
2022/01/21 01:58:27;;;;;;;1.77;0.50;;;;;;;-1.06;66.81;99017.11;1773324;80;21508;-68
2022/01/21 02:00:56;;;;;;;3.08;0.90;;;;;;;-1.07;66.95;99031.61;1779489;80;20961;-68
2022/01/21 02:03:24;;;;;;;2.80;0.62;;;;;;;-1.04;66.96;99037.97;1779769;80;21064;-68
2022/01/21 02:05:50;;;;;;;2.85;0.93;;;;;;;-1.02;66.74;99031.56;1782940;79;21604;-68
2022/01/21 02:08:17;;;;;;;3.10;0.80;;;;;;;-1.00;66.84;99024.72;1783513;80;21098;-68
2022/01/21 02:10:43;;;;;;;2.70;0.68;;;;;;;-1.00;66.89;99046.50;1781349;79;21076;-68
2022/01/21 02:13:23;;;;;;;1.35;0.70;;;;;;;-1.01;66.93;99028.13;1779946;79;21109;-68
2022/01/21 02:21:42;;;;;;;2.80;1.00;;;;;;;-1.08;67.31;99052.14;1782763;80;20977;-68
2022/01/21 02:24:21;;;;;;;3.20;0.95;;;;;;;-1.09;67.21;99067.08;1782019;80;20879;-68
2022/01/21 02:26:50;;;;;;;1.37;0.60;;;;;;;-1.08;67.00;99062.39;1781942;80;21048;-68
2022/01/21 02:29:43;;;;;;;2.72;0.82;;;;;;;-1.09;67.06;99065.80;1781803;79;20985;-68
2022/01/21 02:31:58;;;;;;;2.65;0.60;;;;;;;-1.07;66.89;99069.20;1776705;79;21496;-68
2022/01/21 02:34:27;;;;;;;3.60;0.90;;;;;;;-1.08;66.84;99049.58;1780809;80;21084;-68
2022/01/21 02:36:53;;;;;;;4.05;0.60;;;;;;;-1.08;66.85;99065.80;1782157;80;21102;-68
2022/01/21 02:39:20;;;;;;;5.22;0.95;;;;;;;-1.10;66.50;99075.20;1782854;79;21110;-68
2022/01/21 02:41:47;;;;;;;1.22;0.45;;;;;;;-1.07;66.88;99064.08;1782350;79;21488;-68
2022/01/21 02:44:17;;;;;;;6.17;0.95;;;;;;;-1.06;66.52;99088.84;1782782;80;21988;-68
2022/01/21 02:46:44;;;;;;;6.58;0.60;;;;;;;-1.06;66.59;99068.35;1779933;79;21493;-68
2022/01/21 02:49:11;;;;;;;3.02;0.98;;;;;;;-1.07;66.98;99057.67;1783606;80;21118;-68
2022/01/21 02:51:39;;;;;;;1.87;0.82;;;;;;;-1.09;66.63;99070.92;1780426;79;20966;-68
2022/01/21 02:54:06;;;;;;;2.98;0.78;;;;;;;-1.10;66.07;99070.52;1780750;80;20994;-68
2022/01/21 02:56:39;;;;;;;1.85;0.68;;;;;;;-1.09;66.06;99081.16;1772470;80;26638;-68
2022/01/21 02:59:08;;;;;;;2.22;0.93;;;;;;;-1.09;66.18;99083.73;1788103;80;21607;-68
2022/01/21 03:01:36;;;;;;;1.60;0.47;;;;;;;-1.08;66.45;99080.32;1779053;80;20966;-68
2022/01/21 03:04:06;;;;;;;2.42;0.85;;;;;;;-1.10;66.39;99088.02;1774163;79;21001;-68
2022/01/21 03:06:37;;;;;;;4.00;0.60;;;;;;;-1.10;65.85;99084.60;1777361;80;21003;-67
2022/01/21 03:09:07;;;;;;;4.30;1.27;;;;;;;-1.10;65.83;99078.20;1769143;80;22241;-68
2022/01/21 03:11:34;;;;;;;3.05;0.78;;;;;;;-1.07;66.05;99090.54;1779592;80;21580;-68
2022/01/21 03:14:01;;;;;;;2.75;0.80;;;;;;;-1.08;66.12;99090.12;1789025;80;21044;-68
2022/01/21 03:16:27;;;;;;;2.67;0.70;;;;;;;-1.10;66.30;99092.30;1788708;80;20998;-68
2022/01/21 03:18:54;;;;;;;3.55;0.70;;;;;;;-1.11;66.20;99103.41;1780836;80;21028;-68
2022/01/21 03:21:21;;;;;;;3.10;0.65;;;;;;;-1.13;65.25;99101.70;1784078;79;21531;-68
2022/01/21 03:23:51;;;;;;;2.40;0.70;;;;;;;-1.06;65.83;99104.22;1768910;80;20976;-68
2022/01/21 03:26:22;;;;;;;3.00;0.82;;;;;;;-1.05;65.67;99095.66;1781544;80;21644;-68
2022/01/21 03:28:53;;;;;;;3.30;0.53;;;;;;;-1.06;66.18;99104.22;1786034;80;21632;-68
2022/01/21 03:31:20;;;;;;;3.30;0.57;;;;;;;-1.08;66.07;99103.38;1769797;79;21576;-68
2022/01/21 03:33:47;;;;;;;3.17;0.80;;;;;;;-1.07;65.83;99099.95;1768287;80;21123;-68
2022/01/21 03:36:16;;;;;;;1.85;0.57;;;;;;;-1.07;65.90;99108.91;1776631;80;21013;-68
2022/01/21 03:38:43;;;;;;;1.75;0.60;;;;;;;-1.10;65.21;99117.91;1781358;79;20957;-67
2022/01/21 03:41:10;;;;;;;2.35;0.65;;;;;;;-1.08;65.71;99122.16;1780739;80;21262;-68
2022/01/21 03:43:37;;;;;;;2.87;0.80;;;;;;;-1.11;65.01;99118.79;1782536;80;21520;-68
2022/01/21 03:46:04;;;;;;;2.62;0.50;;;;;;;-1.09;64.88;99115.34;1788653;80;21032;-68
2022/01/21 03:48:31;;;;;;;2.70;0.88;;;;;;;-1.11;64.77;99126.03;1778267;79;21003;-67
2022/01/21 03:50:58;;;;;;;1.50;0.65;;;;;;;-1.06;65.32;99122.16;1777962;79;20990;-68
2022/01/21 03:53:30;;;;;;;4.13;0.70;;;;;;;-1.09;65.22;99123.44;1781986;79;21188;-68
2022/01/21 03:55:57;;;;;;;4.28;0.68;;;;;;;-1.13;65.10;99111.95;1773062;80;21096;-67
2022/01/21 03:58:24;;;;;;;3.30;0.57;;;;;;;-1.16;65.07;99123.50;1781814;79;21281;-67
2022/01/21 04:00:53;;;;;;;4.37;0.40;;;;;;;-1.18;65.61;99118.82;1780710;80;23237;-68
2022/01/21 04:03:23;;;;;;;4.67;1.32;;;;;;;-1.20;65.74;99133.38;1777468;79;20997;-68
2022/01/21 04:05:49;;;;;;;2.47;0.70;;;;;;;-1.20;65.76;99129.98;1776970;80;21001;-68
2022/01/21 04:08:17;;;;;;;5.27;1.07;;;;;;;-1.21;65.80;99135.50;1772159;80;21000;-68
2022/01/21 04:10:44;;;;;;;2.40;1.20;;;;;;;-1.22;65.77;99142.78;1778937;80;21540;-67
2022/01/21 04:13:17;;;;;;;2.90;1.10;;;;;;;-1.22;65.86;99136.81;1778925;79;21009;-67
2022/01/21 04:15:41;;;;;;;4.50;1.50;;;;;;;-1.23;66.07;99143.66;1771659;80;20981;-68
2022/01/21 04:18:07;;;;;;;;;;;;;;;-1.24;66.13;99139.37;1781352;79;21364;-67
2022/01/21 04:20:34;;;;;;;1.37;0.88;;;;;;;-1.24;66.12;99141.94;1751562;80;20159;-68
2022/01/21 04:23:00;;;;;;;1.17;0.53;;;;;;;-1.24;66.13;99139.37;1781863;79;21163;-68
2022/01/21 04:25:27;;;;;;;3.30;0.82;;;;;;;-1.24;65.96;99152.19;1780337;79;20986;-68
2022/01/21 04:27:54;;;;;;;2.57;1.20;;;;;;;-1.22;66.11;99153.47;1781771;79;21021;-68
2022/01/21 04:30:20;;;;;;;1.67;0.95;;;;;;;-1.23;66.10;99163.27;1769398;79;21782;-68
2022/01/21 04:32:47;;;;;;;5.05;1.02;;;;;;;-1.24;65.80;99166.27;1779260;80;21813;-68
2022/01/21 04:35:16;;;;;;;9.80;1.03;;;;;;;-1.23;65.90;99156.46;1778804;80;21512;-67
2022/01/21 04:37:51;;;;;;;2.67;0.65;;;;;;;-1.23;65.95;99150.47;1781689;80;20967;-68
2022/01/21 04:40:15;;;;;;;1.72;0.88;;;;;;;-1.24;65.84;99156.46;1733735;80;20985;-68
2022/01/21 04:48:11;;;;;;;3.60;1.40;;;;;;;-1.24;65.75;99182.92;1763362;80;21123;-68
2022/01/21 04:50:40;;;;;;;3.37;0.78;;;;;;;-1.26;66.10;99153.05;1758593;80;20989;-68
2022/01/21 04:53:07;;;;;;;3.42;0.53;;;;;;;-1.29;65.63;99171.86;1761173;79;21504;-68
2022/01/21 04:55:36;;;;;;;2.47;0.80;;;;;;;-1.31;65.54;99176.17;1759873;79;21113;-68
2022/01/21 04:58:03;;;;;;;1.45;0.57;;;;;;;-1.31;65.35;99171.05;1758357;79;21544;-68
2022/01/21 05:00:30;;;;;;;1.10;0.68;;;;;;;-1.31;64.94;99178.73;1757835;80;21147;-68
2022/01/21 05:02:57;;;;;;;1.95;1.05;;;;;;;-1.32;64.84;99169.33;1759141;79;21021;-68
2022/01/21 05:05:23;;;;;;;8.45;1.15;;;;;;;-1.34;64.69;99165.95;1763296;80;20960;-67
2022/01/21 05:07:50;;;;;;;4.12;0.65;;;;;;;-1.35;65.07;99174.48;1758928;79;21089;-68
2022/01/21 05:10:17;;;;;;;3.20;0.88;;;;;;;-1.37;64.79;99168.53;1758639;79;21658;-67
2022/01/21 05:12:44;;;;;;;1.73;0.80;;;;;;;-1.38;64.75;99174.50;1756968;79;21049;-68
2022/01/21 05:15:27;;;;;;;2.30;0.53;;;;;;;-1.41;64.62;99171.97;1762223;79;21072;-68
2022/01/21 05:17:45;;;;;;;1.47;0.80;;;;;;;-1.42;65.12;99170.28;1754691;79;21017;-67
2022/01/21 05:20:12;;;;;;;2.30;0.88;;;;;;;-1.45;65.06;99172.87;1760667;79;20978;-68
2022/01/21 05:22:39;;;;;;;2.35;0.98;;;;;;;-1.46;64.93;99181.39;1759602;79;22576;-68
2022/01/21 05:25:07;;;;;;;2.50;0.60;;;;;;;-1.46;65.37;99173.70;1761686;81;21612;-68
2022/01/21 05:27:33;;;;;;;4.72;0.95;;;;;;;-1.48;65.42;99170.33;1754890;79;21052;-68
2022/01/21 05:30:00;;;;;;;0.98;0.65;;;;;;;-1.50;65.42;99181.85;1762301;79;21452;-68
2022/01/21 05:32:27;;;;;;;4.50;0.77;;;;;;;-1.50;65.31;99182.29;1762956;79;20933;-68
2022/01/21 05:34:53;;;;;;;2.12;0.88;;;;;;;-1.51;65.34;99188.25;1758360;80;20902;-68
2022/01/21 05:37:20;;;;;;;2.60;0.80;;;;;;;-1.53;65.46;99183.16;1762648;80;21533;-68
2022/01/21 05:39:47;;;;;;;2.93;0.90;;;;;;;-1.52;65.71;99173.76;1760478;79;21525;-68
2022/01/21 05:42:13;;;;;;;1.95;0.95;;;;;;;-1.54;65.84;99195.95;1760494;79;20972;-68
2022/01/21 05:47:09;;;;;;;1.30;0.62;;;;;;;-1.54;65.51;99197.23;1760861;79;21153;-68
2022/01/21 05:49:40;;;;;;;2.12;0.90;;;;;;;-1.66;65.33;99184.94;1760411;79;21709;-68
2022/01/21 05:52:16;;;;;;;4.62;1.05;;;;;;;-1.66;65.33;99184.94;1759617;79;21663;-68
2022/01/21 05:54:37;;;;;;;4.05;0.98;;;;;;;-1.53;65.41;99197.67;1756328;79;21065;-67
2022/01/21 05:57:06;;;;;;;2.75;1.10;;;;;;;-1.58;65.44;99192.14;1768433;79;21428;-67
2022/01/21 05:59:34;;;;;;;4.55;0.80;;;;;;;-1.55;65.51;99184.03;1753167;80;20911;-67
2022/01/21 06:02:01;;;;;;;5.15;0.80;;;;;;;-1.58;65.66;99185.73;1759768;79;21572;-68
2022/01/21 06:04:28;;;;;;;1.92;0.75;;;;;;;-1.60;65.41;99191.32;1745323;80;21068;-68
2022/01/21 06:06:54;;;;;;;3.05;0.88;;;;;;;-1.60;65.35;99192.60;1763719;79;20941;-69
2022/01/21 06:09:21;;;;;;;2.93;0.87;;;;;;;-1.58;65.44;99193.41;1765440;80;21119;-68
2022/01/21 06:11:48;;;;;;;3.58;0.70;;;;;;;-1.60;65.53;99195.16;1766024;80;20985;-68
2022/01/21 06:14:14;;;;;;;1.47;0.72;;;;;;;-1.58;65.58;99213.90;1763894;80;21872;-68
2022/01/21 06:16:41;;;;;;;2.52;0.90;;;;;;;-1.61;65.70;99216.48;1762442;80;20969;-67
2022/01/21 06:19:08;;;;;;;3.47;1.07;;;;;;;-1.62;65.87;99214.80;1757921;79;20977;-65
2022/01/21 06:21:34;;;;;;;3.50;1.00;;;;;;;-1.64;66.00;99216.50;1761429;79;20961;-65
2022/01/21 06:24:01;;;;;;;4.83;1.50;;;;;;;-1.65;66.05;99223.77;1757074;79;20972;-65
2022/01/21 06:26:28;;;;;;;1.72;0.90;;;;;;;-1.66;66.00;99225.89;1764112;79;22327;-65
2022/01/21 06:28:54;;;;;;;3.17;1.60;;;;;;;-1.66;65.85;99225.89;1759073;80;21599;-65
2022/01/21 06:31:23;;;;;;;2.83;0.80;;;;;;;-1.64;65.52;99230.58;1766637;79;21105;-65
2022/01/21 06:33:51;;;;;;;9.80;1.05;;;;;;;-1.62;65.62;99242.95;1757436;79;21073;-65
2022/01/21 06:36:18;;;;;;;1.85;0.78;;;;;;;-1.63;65.30;99236.11;1734959;80;21083;-64
2022/01/21 06:38:45;;;;;;;2.62;1.10;;;;;;;-1.63;65.70;99242.52;1764250;80;21113;-65
2022/01/21 06:41:14;;;;;;;5.37;1.00;;;;;;;-1.65;65.73;99246.81;1762401;79;20969;-65
2022/01/21 06:43:41;;;;;;;;;;;;;;;-1.66;65.95;99245.53;1765047;79;21027;-64
2022/01/21 06:46:10;;;;;;;2.45;0.80;;;;;;;-1.68;66.03;99240.44;1737341;79;20116;-65
2022/01/21 06:48:37;;;;;;;5.20;0.68;;;;;;;-1.69;66.05;99242.98;1741266;81;21023;-65
2022/01/21 06:51:04;;;;;;;3.50;0.85;;;;;;;-1.69;66.01;99256.63;1736610;81;21122;-65
2022/01/21 06:53:31;;;;;;;1.70;0.60;;;;;;;-1.70;65.95;99261.77;1739262;81;21745;-65
2022/01/21 06:55:57;;;;;;;2.50;0.90;;;;;;;-1.69;66.10;99263.47;1739643;80;21184;-65
2022/01/21 06:58:24;;;;;;;3.00;0.80;;;;;;;-1.70;66.22;99262.63;1737691;80;21078;-65
2022/01/21 07:00:50;;;;;;;3.02;0.55;;;;;;;-1.68;66.27;99276.27;1732848;80;21014;-65
2022/01/21 07:03:17;;;;;;;3.90;0.93;;;;;;;-1.69;66.23;99278.39;1734473;80;22138;-64
2022/01/21 07:05:46;;;;;;;1.40;1.00;;;;;;;-1.67;66.26;99270.28;1762037;78;21108;-65
2022/01/21 07:08:16;;;;;;;3.62;0.85;;;;;;;-1.66;66.36;99271.13;1772998;79;20885;-66
2022/01/21 07:10:43;;;;;;;2.95;0.65;;;;;;;-1.67;66.46;99276.68;1762580;79;20997;-65
2022/01/21 07:13:11;;;;;;;3.02;0.75;;;;;;;-1.66;66.60;99284.77;1762329;79;21594;-66
2022/01/21 07:15:38;;;;;;;5.87;1.17;;;;;;;-1.62;66.60;99291.59;1755629;79;21484;-65
2022/01/21 07:18:04;;;;;;;3.20;1.37;;;;;;;-1.62;66.64;99298.00;1762819;79;21640;-67
2022/01/21 07:20:31;;;;;;;1.97;1.20;;;;;;;-1.63;66.75;99291.15;1764505;81;20969;-67
2022/01/21 07:22:58;;;;;;;4.72;1.50;;;;;;;-1.63;66.81;99300.11;1767666;79;21002;-65
2022/01/21 07:25:27;;;;;;;5.05;1.40;;;;;;;-1.61;66.81;99298.41;1764770;81;20956;-65
2022/01/21 07:27:54;;;;;;;4.83;1.15;;;;;;;-1.63;66.85;99294.99;1762458;79;21883;-66
2022/01/21 07:30:20;;;;;;;5.42;2.10;;;;;;;-1.60;66.86;99302.69;1766362;81;21033;-65
2022/01/21 07:32:47;;;;;;;3.05;1.27;;;;;;;-1.60;66.94;99315.48;1767317;79;20902;-65
2022/01/21 07:35:15;;;;;;;4.72;1.67;;;;;;;-1.60;66.99;99304.37;1760214;79;21631;-65
2022/01/21 07:37:41;;;;;;;4.45;1.55;;;;;;;-1.58;66.97;99303.51;1761972;79;21096;-64
2022/01/21 07:40:10;;;;;;;3.53;0.90;;;;;;;-1.56;66.94;99318.03;1763838;79;21200;-65
2022/01/21 07:42:36;;;;;;;1.60;0.88;;;;;;;-1.55;66.79;99305.64;1764144;79;21013;-65
2022/01/21 07:45:04;;;;;;;2.33;0.97;;;;;;;-1.54;66.57;99321.41;1761346;79;20942;-65
2022/01/21 07:47:31;;;;;;;2.22;1.30;;;;;;;-1.53;66.61;99315.45;1760601;79;21309;-65
2022/01/21 07:50:02;;;;;;;4.83;1.55;;;;;;;-1.51;66.57;99321.39;1761288;79;21603;-65
2022/01/21 07:52:29;;;;;;;5.40;1.67;;;;;;;-1.52;66.61;99317.14;1762742;79;21170;-65
2022/01/21 07:54:56;;;;;;;4.43;1.80;;;;;;;-1.51;66.71;99314.59;1759590;79;21087;-65
2022/01/21 07:57:23;;;;;;;4.90;1.30;;;;;;;-1.48;66.72;99323.97;1760736;79;21009;-66
2022/01/21 07:59:50;;;;;;;2.72;0.82;;;;;;;-1.49;66.71;99332.48;1752091;80;22263;-65
2022/01/21 08:02:17;;;;;;;3.10;1.30;;;;;;;-1.48;66.75;99338.05;1735634;82;20967;-65
2022/01/21 08:04:45;;;;;;;4.25;1.25;;;;;;;-1.49;66.65;99315.84;1725613;80;21129;-66
2022/01/21 08:07:12;;;;;;;4.42;1.65;;;;;;;-1.47;66.70;99325.66;1757360;79;20961;-66
2022/01/21 08:09:39;;;;;;;6.20;1.27;;;;;;;-1.47;66.82;99325.66;1754139;79;21092;-66
2022/01/21 08:12:07;;;;;;;;;;;;;;;-1.44;66.84;99330.76;1756027;81;21812;-65
2022/01/21 08:14:34;;;;;;;1.98;0.95;;;;;;;-1.45;66.66;99331.63;1755147;79;20198;-67
2022/01/21 08:17:02;;;;;;;4.83;1.70;;;;;;;-1.44;66.62;99328.20;1753026;79;21533;-68
2022/01/21 08:19:28;;;;;;;;;;;;;;;-1.43;66.64;99329.89;1757137;81;22108;-67
2022/01/21 08:21:55;;;;;;;4.05;1.00;;;;;;;-1.43;66.48;99328.20;1759685;80;20475;-67
2022/01/21 08:24:22;;;;;;;2.37;1.32;;;;;;;-1.41;66.62;99329.03;1757551;81;21111;-67
2022/01/21 08:26:49;;;;;;;4.62;1.02;;;;;;;-1.39;66.62;99335.00;1754714;81;21047;-67
2022/01/21 08:29:16;;;;;;;4.33;1.92;;;;;;;-1.37;66.67;99342.69;1749685;79;22475;-66
2022/01/21 08:31:45;;;;;;;4.30;1.77;;;;;;;-1.35;66.68;99347.34;1758439;80;21045;-65
2022/01/21 08:34:14;;;;;;;7.40;1.20;;;;;;;-1.34;66.39;99352.92;1756354;81;21140;-64
2022/01/21 08:36:48;;;;;;;3.52;1.70;;;;;;;-1.33;66.24;99346.92;1758224;81;20989;-66
2022/01/21 08:40:35;;;;;;;2.80;1.37;;;;;;;-1.24;66.45;99349.42;1863064;73;22639;-64
2022/01/21 08:43:02;;;;;;;5.90;1.90;;;;;;;-1.27;66.26;99354.56;1707749;81;21048;-64
2022/01/21 08:45:33;;;;;;;4.75;1.75;;;;;;;-1.21;66.50;99351.97;1718667;81;21095;-64
2022/01/21 08:48:01;;;;;;;5.85;1.55;;;;;;;-1.18;66.06;99351.95;1734830;81;21084;-64
2022/01/21 08:50:27;;;;;;;2.22;1.12;;;;;;;-1.11;66.11;99354.50;1716111;81;21082;-63
2022/01/21 08:53:06;;;;;;;2.33;1.20;;;;;;;-1.04;66.27;99349.73;1691981;82;21064;-64
2022/01/21 08:55:23;;;;;;;3.00;1.37;;;;;;;-1.09;65.39;99361.72;1733014;81;21362;-64
2022/01/21 08:57:50;;;;;;;3.97;1.37;;;;;;;-1.01;65.74;99366.38;1704598;83;21224;-64
2022/01/21 09:00:21;;;;;;;8.08;1.50;;;;;;;-1.02;65.59;99354.44;1717865;81;21599;-64
2022/01/21 09:02:51;;;;;;;2.47;1.10;;;;;;;-1.08;65.15;99364.73;1730801;80;20981;-65
2022/01/21 09:05:17;;;;;;;4.05;1.35;;;;;;;-0.98;65.71;99368.91;1699542;82;21040;-63
2022/01/21 09:07:44;;;;;;;2.98;1.40;;;;;;;-0.95;65.60;99363.80;1734814;80;21124;-64
2022/01/21 09:10:12;;;;;;;1.70;1.20;;;;;;;-0.94;65.26;99374.02;1688648;81;21473;-65
2022/01/21 09:12:39;;;;;;;3.77;1.05;;;;;;;-0.88;65.40;99375.70;1735413;80;21040;-65
2022/01/21 09:15:08;;;;;;;4.60;1.20;;;;;;;-0.82;65.38;99383.34;1731821;80;21116;-65
2022/01/21 09:17:36;;;;;;;3.08;1.40;;;;;;;-0.72;65.51;99383.70;1730918;81;21059;-65
2022/01/21 09:20:05;;;;;;;3.70;1.55;;;;;;;-0.75;65.19;99383.73;1722487;82;21182;-65
2022/01/21 09:22:31;;;;;;;3.27;1.37;;;;;;;-0.72;65.23;99376.02;1718164;81;21489;-65
2022/01/21 09:24:58;;;;;;;2.77;1.40;;;;;;;-0.68;65.17;99378.97;1686804;82;21096;-65
2022/01/21 09:27:51;;;;;;;3.67;1.27;;;;;;;-0.70;64.38;99399.94;1835306;76;22726;-64
2022/01/21 09:30:18;;;;;;;2.70;1.25;;;;;;;-0.80;64.72;99385.47;1810899;78;21065;-64
2022/01/21 09:32:45;;;;;;;6.87;1.10;;;;;;;-0.85;64.80;99396.18;1813124;78;21098;-64
2022/01/21 09:35:12;;;;;;;2.58;1.30;;;;;;;-0.86;64.52;99394.48;1807685;78;21514;-69
2022/01/21 09:37:40;;;;;;;3.15;0.80;;;;;;;-0.83;64.84;99396.19;1814009;78;21022;-70
2022/01/21 09:40:08;;;;;;;1.60;1.10;;;;;;;-0.87;64.75;99392.77;1757554;79;21054;-70
2022/01/21 09:42:52;;;;;;;5.33;1.55;;;;;;;-0.83;64.96;99382.93;1747416;81;21689;-70
2022/01/21 09:45:27;;;;;;;4.35;1.42;;;;;;;-0.83;65.05;99384.21;1750458;80;21009;-72
2022/01/21 09:47:58;;;;;;;3.83;1.35;;;;;;;-0.75;65.18;99377.33;1766020;80;20977;-72
2022/01/21 09:50:24;;;;;;;3.80;1.60;;;;;;;-0.65;64.97;99382.38;1762626;80;20958;-70
2022/01/21 09:52:53;;;;;;;2.55;1.20;;;;;;;-0.63;65.04;99385.79;1781846;79;21068;-70
2022/01/21 09:55:23;;;;;;;6.10;1.25;;;;;;;-0.62;64.95;99405.43;1765446;79;21001;-72
2022/01/21 09:57:54;;;;;;;3.65;1.37;;;;;;;-0.69;64.75;99395.22;1748156;81;21192;-75
2022/01/21 10:00:26;;;;;;;4.72;1.15;;;;;;;-0.73;65.07;99385.86;1765843;79;21005;-71
2022/01/21 10:03:01;;;;;;;3.45;1.32;;;;;;;-0.66;65.20;99388.38;1757622;79;20965;-67
2022/01/21 10:07:16;;;;;;;4.80;1.30;;;;;;;-0.71;64.93;99384.12;1864119;74;22055;-69
2022/01/21 10:09:48;;;;;;;3.77;1.50;;;;;;;-0.79;64.91;99383.31;1820883;77;21048;-69
2022/01/21 10:12:16;;;;;;;2.37;1.00;;;;;;;-0.79;65.07;99388.44;1824765;76;22573;-67
2022/01/21 10:14:45;;;;;;;3.58;1.25;;;;;;;-0.87;64.91;99408.14;1824910;77;22774;-69
2022/01/21 10:17:12;;;;;;;3.25;1.30;;;;;;;-0.81;65.22;99401.72;1822064;77;20980;-67
2022/01/21 10:19:41;;;;;;;7.05;1.57;;;;;;;-0.83;65.12;99403.44;1825802;77;21090;-68
2022/01/21 10:22:15;;;;;;;5.78;1.60;;;;;;;-0.82;65.02;99400.00;1821130;77;20980;-67
2022/01/21 10:25:01;;;;;;;3.95;1.55;;;;;;;-0.83;65.28;99394.47;1826329;77;21093;-67
2022/01/21 10:27:41;;;;;;;8.08;1.92;;;;;;;-0.90;65.41;99373.56;1826297;76;20976;-67
2022/01/21 10:30:22;;;;;;;4.67;1.20;;;;;;;-0.90;65.41;99373.56;1825673;77;21016;-67
2022/01/21 10:32:55;;;;;;;1.52;0.93;;;;;;;-0.81;65.32;99385.06;1820496;76;21102;-68
2022/01/21 10:35:49;;;;;;;3.00;0.98;;;;;;;-0.78;65.22;99391.45;1823271;77;20932;-68
2022/01/21 10:38:28;;;;;;;4.55;1.07;;;;;;;-0.80;65.25;99391.87;1715563;81;21109;-69
2022/01/21 10:40:52;;;;;;;3.05;1.25;;;;;;;-0.82;65.27;99397.44;1720268;81;21034;-69
2022/01/21 10:43:19;;;;;;;4.40;1.47;;;;;;;-0.78;65.48;99399.58;1632450;84;21135;-70
2022/01/21 10:45:56;;;;;;;5.03;1.57;;;;;;;-0.78;65.40;99396.58;1681590;83;20970;-67
2022/01/21 10:48:25;;;;;;;3.52;1.32;;;;;;;-0.83;65.24;99394.47;1687510;83;21116;-69
2022/01/21 10:51:27;;;;;;;2.20;1.10;;;;;;;-0.82;65.40;99406.41;1689090;83;21310;-70
2022/01/21 10:53:56;;;;;;;3.20;1.37;;;;;;;-0.78;65.57;99402.98;1686113;83;21219;-68
2022/01/21 10:56:26;;;;;;;3.47;1.52;;;;;;;-0.81;65.42;99405.57;1688182;83;21049;-68
2022/01/21 10:58:54;;;;;;;7.42;1.87;;;;;;;-0.80;65.27;99399.57;1686365;83;22240;-67
2022/01/21 11:01:29;;;;;;;6.97;1.15;;;;;;;-0.81;65.56;99395.31;1641234;84;23371;-67
2022/01/21 11:04:16;;;;;;;2.85;1.30;;;;;;;-0.78;65.52;99391.88;1663101;84;22274;-67
2022/01/21 11:06:56;;;;;;;8.23;1.40;;;;;;;-0.77;65.53;99386.73;1659317;84;21049;-68
2022/01/21 11:09:28;;;;;;;3.25;1.62;;;;;;;-0.70;65.53;99389.69;1657944;84;21634;-69
2022/01/21 11:12:14;;;;;;;5.45;1.57;;;;;;;-0.66;65.23;99387.09;1663541;84;21049;-69
2022/01/21 11:14:58;;;;;;;1.72;0.90;;;;;;;-0.63;65.32;99405.02;1633719;84;21745;-70
2022/01/21 11:17:25;;;;;;;3.55;1.42;;;;;;;-0.72;64.85;99376.02;1659216;84;21319;-69
2022/01/21 11:20:13;;;;;;;9.48;1.30;;;;;;;-0.77;64.96;99386.73;1661547;84;21043;-70
2022/01/21 11:22:57;;;;;;;3.35;1.90;;;;;;;-0.71;65.28;99378.98;1664813;84;21047;-70
2022/01/21 11:25:46;;;;;;;2.62;0.85;;;;;;;-0.64;65.48;99390.07;1659914;85;21089;-69
2022/01/21 11:28:17;;;;;;;3.40;1.27;;;;;;;-0.68;64.67;99391.78;1675042;83;21332;-70
2022/01/21 11:30:45;;;;;;;2.15;1.10;;;;;;;-0.75;64.87;99386.30;1667683;84;21087;-69
2022/01/21 11:33:12;;;;;;;4.78;1.27;;;;;;;-0.82;65.02;99388.47;1668069;84;21156;-70
2022/01/21 11:35:40;;;;;;;2.58;1.35;;;;;;;-0.85;64.94;99355.17;1675825;84;21081;-69
2022/01/21 11:38:09;;;;;;;;;;;;;;;-0.90;65.09;99392.78;1671786;84;20989;-70
2022/01/21 11:40:37;;;;;;;3.60;1.40;;;;;;;-0.88;65.22;99385.95;1657882;84;20177;-69
2022/01/21 11:43:06;;;;;;;6.17;1.50;;;;;;;-0.90;65.19;99405.60;1663149;84;21134;-70
2022/01/21 11:46:04;;;;;;;8.38;1.62;;;;;;;-0.92;65.39;99409.91;1662268;84;21001;-72
2022/01/21 11:50:46;;;;;;;2.75;1.27;;;;;;;-0.86;65.40;99402.18;1662623;83;21586;-72
2022/01/21 11:53:13;;;;;;;4.65;1.30;;;;;;;-0.86;65.52;99403.46;1671637;83;21606;-72
2022/01/21 11:55:47;;;;;;;;;;;;;;;-0.83;65.42;99394.47;1671009;84;21390;-71
2022/01/21 11:58:21;;;;;;;3.85;1.50;;;;;;;-0.82;65.52;99407.69;1667156;84;20128;-73
2022/01/21 12:00:52;;;;;;;3.12;1.32;;;;;;;-0.77;65.42;99396.98;1664287;84;21095;-70
2022/01/21 12:03:23;;;;;;;4.72;1.60;;;;;;;-0.69;65.54;99382.40;1664835;84;21009;-70
2022/01/21 12:05:50;;;;;;;3.27;1.30;;;;;;;-0.69;65.22;99397.78;1660568;84;21172;-69
2022/01/21 12:08:47;;;;;;;3.25;1.25;;;;;;;-0.73;64.96;99388.42;1659914;84;21939;-70
2022/01/21 12:11:39;;;;;;;4.23;1.57;;;;;;;-0.73;64.50;99390.99;1656914;84;21597;-71
2022/01/21 12:14:40;;;;;;;3.25;1.00;;;;;;;-0.73;64.61;99385.86;1684075;83;21459;-71
2022/01/21 12:17:20;;;;;;;4.75;1.15;;;;;;;-0.74;64.43;99398.23;1682887;83;21488;-71
2022/01/21 12:19:44;;;;;;;2.30;1.82;;;;;;;-0.77;64.38;99386.73;1652775;84;21176;-71
2022/01/21 12:22:17;;;;;;;2.37;0.90;;;;;;;-0.85;64.09;99423.53;1657480;85;21086;-71
2022/01/21 12:24:54;;;;;;;4.22;1.65;;;;;;;-0.83;64.42;99407.28;1664162;84;21131;-71
2022/01/21 12:27:25;;;;;;;3.98;1.98;;;;;;;-0.86;64.62;99402.18;1652356;85;21141;-71
2022/01/21 12:29:55;;;;;;;3.77;1.15;;;;;;;-0.79;65.00;99402.55;1662656;85;21582;-70
2022/01/21 12:32:33;;;;;;;5.90;1.45;;;;;;;-0.78;64.80;99413.23;1651030;84;21135;-71
2022/01/21 12:35:02;;;;;;;4.60;1.77;;;;;;;-0.82;64.52;99420.51;1661334;85;22058;-71